Terminal Aerodrome Forecast
Issued by NWS

Home | Current Version | Previous Version | Text Only | Print | Product List | Glossary On
Versions: 1 2 3 4 5 6 7 8 9 10 11 12 13 14 15 16 17 18 19
286
FTUS43 KAPX 180347 AAA
TAFMBL
TAF AMD
KMBL 180347Z 1804/1824 18007KT 3SM -SHRA BR OVC013
     FM180600 19004KT 3SM -SHRA OVC008
     FM180800 29004KT P6SM VCSH OVC015
     FM181000 35005KT 3SM -SHRA OVC015
     FM181200 01006KT P6SM VCSH OVC015
     FM181400 01008KT P6SM VCSH OVC015
     FM181700 36011G23KT 5SM -SHRA OVC020
     FM181900 35013G24KT P6SM OVC020=

USA.gov is the U.S. government's official web portal to all federal, state and local government web resources and services.